Time;durP1;ratioP1;P1;durP2;ratioP2;P2;SDS_P1;SDS_P2;PMS_P1;PMS_P2;Temp;Humidity;BMP_temperature;BMP_pressure;BME280_temperature;BME280_humidity;BME280_pressure;Samples;Min_cycle;Max_cycle;Signal;HPM_P1;HPM_P2
2022/08/29 00:02:14;;;;;;;28.77;15.63;;;;;;;22.03;84.35;94714.69;5067216;28;20587;-78
2022/08/29 00:04:41;;;;;;;35.28;16.02;;;;;;;22.02;84.77;94712.31;5067737;28;20216;-78
2022/08/29 00:07:08;;;;;;;31.13;16.77;;;;;;;21.93;84.95;94709.53;5066440;28;20201;-78
2022/08/29 00:09:34;;;;;;;27.33;15.35;;;;;;;21.88;85.85;94712.25;5064252;28;20212;-78
2022/08/29 00:12:03;;;;;;;32.10;16.20;;;;;;;21.79;86.25;94721.13;5065270;28;20213;-78
2022/08/29 00:14:30;;;;;;;30.42;16.13;;;;;;;21.67;86.71;94703.03;5066679;28;20245;-77
2022/08/29 00:16:57;;;;;;;29.60;16.23;;;;;;;21.71;86.95;94709.28;5066031;28;20228;-78
2022/08/29 00:19:24;;;;;;;28.40;14.63;;;;;;;21.69;86.74;94714.09;5067035;28;20208;-77
2022/08/29 00:21:51;;;;;;;28.10;15.02;;;;;;;21.61;85.68;94711.31;5065280;28;20242;-78
2022/08/29 00:24:18;;;;;;;21.67;13.35;;;;;;;21.61;85.56;94712.09;5066824;28;20209;-79
2022/08/29 00:26:45;;;;;;;26.40;14.80;;;;;;;21.61;86.36;94714.75;5067488;28;20209;-78
2022/08/29 00:29:16;;;;;;;26.42;15.32;;;;;;;21.63;86.78;94717.09;5065519;28;20201;-78
2022/08/29 00:31:43;;;;;;;26.60;14.48;;;;;;;21.57;85.85;94715.56;5067848;28;20217;-78
2022/08/29 00:34:10;;;;;;;26.17;14.15;;;;;;;21.50;87.16;94716.72;5067927;28;20206;-78
2022/08/29 00:36:37;;;;;;;27.77;13.45;;;;;;;21.60;85.09;94710.50;5066090;28;20204;-78
2022/08/29 00:39:04;;;;;;;23.35;12.52;;;;;;;21.58;84.80;94707.38;5066997;28;20209;-79
2022/08/29 00:41:31;;;;;;;29.10;13.82;;;;;;;21.59;84.22;94716.09;5066681;28;20220;-79
2022/08/29 00:43:57;;;;;;;24.33;13.10;;;;;;;21.57;84.28;94708.44;5066550;28;20206;-78
2022/08/29 00:46:51;;;;;;;24.33;13.50;;;;;;;21.77;85.00;94704.72;5066401;28;20209;-78
2022/08/29 00:49:29;;;;;;;26.40;12.82;;;;;;;21.78;84.89;94712.38;5066208;28;20209;-78
2022/08/29 00:51:58;;;;;;;19.98;13.35;;;;;;;21.71;85.18;94706.66;5066028;28;20256;-78
2022/08/29 00:54:26;;;;;;;26.08;14.05;;;;;;;21.69;86.00;94711.44;5065453;28;20204;-78
2022/08/29 00:56:55;;;;;;;21.60;12.90;;;;;;;21.62;86.25;94713.66;5065027;28;20201;-78
2022/08/29 00:59:25;;;;;;;26.38;12.77;;;;;;;21.59;86.41;94702.88;5064485;28;20201;-78
2022/08/29 01:01:53;;;;;;;23.58;13.20;;;;;;;21.56;86.33;94703.44;5064477;28;20240;-78
2022/08/29 01:04:20;;;;;;;19.42;13.02;;;;;;;21.50;87.11;94700.03;5065852;28;20304;-77
2022/08/29 01:06:47;;;;;;;18.88;12.02;;;;;;;21.43;85.80;94705.72;5065604;28;20219;-78
2022/08/29 01:09:14;;;;;;;20.77;11.90;;;;;;;21.37;86.21;94700.75;5067059;28;20212;-77
2022/08/29 01:14:27;;;;;;;28.58;13.20;;;;;;;21.42;86.28;94701.47;5066152;28;20318;-78
2022/08/29 01:16:59;;;;;;;22.90;13.82;;;;;;;21.42;86.31;94703.34;5065441;28;20731;-78
2022/08/29 01:19:42;;;;;;;25.45;14.00;;;;;;;21.27;87.30;94696.38;5065195;28;20208;-78
2022/08/29 01:22:57;;;;;;;24.65;14.50;;;;;;;21.22;88.16;94698.28;5066063;28;20205;-78
2022/08/29 01:25:29;;;;;;;27.70;13.88;;;;;;;21.39;87.97;94703.91;5004158;28;20218;-78
2022/08/29 01:28:03;;;;;;;31.17;14.82;;;;;;;21.37;88.41;94704.19;5051150;28;20664;-78
2022/08/29 01:30:30;;;;;;;24.50;13.90;;;;;;;21.29;88.79;94696.09;5066776;28;20216;-77
2022/08/29 01:32:59;;;;;;;27.55;14.40;;;;;;;21.20;88.74;94693.31;5066342;28;20208;-78
2022/08/29 01:35:26;;;;;;;22.33;13.48;;;;;;;21.17;89.67;94698.34;5065739;28;20201;-77
2022/08/29 01:37:54;;;;;;;24.95;13.30;;;;;;;21.10;89.43;94703.19;5064741;28;20218;-77
2022/08/29 01:40:21;;;;;;;24.35;13.10;;;;;;;20.98;89.77;94695.63;5065075;28;20197;-77
2022/08/29 01:42:49;;;;;;;24.48;14.23;;;;;;;21.00;89.90;94706.72;5063689;28;20259;-77
2022/08/29 01:45:16;;;;;;;24.83;13.35;;;;;;;20.96;90.37;94708.34;5064007;28;20229;-77
2022/08/29 01:47:43;;;;;;;26.10;13.05;;;;;;;20.91;90.79;94705.75;5064340;28;20204;-77
2022/08/29 01:50:14;;;;;;;20.92;12.63;;;;;;;20.85;91.23;94704.22;5061489;28;20216;-77
2022/08/29 01:52:41;;;;;;;20.05;13.35;;;;;;;20.86;91.27;94708.47;5064438;28;20194;-76
2022/08/29 01:55:09;;;;;;;17.70;12.55;;;;;;;20.80;91.37;94709.56;5064096;28;20212;-77
2022/08/29 01:57:37;;;;;;;22.33;12.70;;;;;;;20.75;91.74;94707.75;5064965;28;20236;-76
2022/08/29 02:00:07;;;;;;;25.15;13.30;;;;;;;20.71;92.06;94714.69;5063400;28;20213;-77
2022/08/29 02:02:34;;;;;;;21.30;13.65;;;;;;;20.79;91.05;94718.56;5065082;28;20239;-77
2022/08/29 02:05:01;;;;;;;25.17;12.93;;;;;;;20.79;90.04;94713.28;5065855;28;20216;-78
2022/08/29 02:07:28;;;;;;;21.40;12.50;;;;;;;20.85;90.02;94730.66;5064534;28;20597;-77
2022/08/29 02:09:55;;;;;;;25.65;12.98;;;;;;;20.80;89.64;94726.22;5064921;28;20224;-78
2022/08/29 02:12:22;;;;;;;26.17;12.30;;;;;;;20.81;89.36;94719.84;5064666;28;20220;-78
2022/08/29 02:14:49;;;;;;;25.42;13.43;;;;;;;20.78;89.58;94725.69;5063545;28;20236;-78
2022/08/29 02:17:18;;;;;;;24.13;12.90;;;;;;;20.71;90.40;94722.59;5063676;28;20504;-78
2022/08/29 02:19:45;;;;;;;22.42;12.55;;;;;;;20.74;90.54;94718.63;5062378;28;20293;-78
2022/08/29 02:22:12;;;;;;;20.77;12.63;;;;;;;20.73;90.43;94725.75;5063138;28;20216;-77
2022/08/29 02:24:39;;;;;;;17.75;12.15;;;;;;;20.75;90.46;94726.25;5063770;28;20219;-77
2022/08/29 02:27:06;;;;;;;16.23;12.13;;;;;;;20.78;90.49;94722.25;5064220;28;20726;-77
2022/08/29 02:29:33;;;;;;;19.30;12.30;;;;;;;20.77;90.42;94724.13;5063278;28;20212;-76
2022/08/29 02:32:01;;;;;;;20.23;12.32;;;;;;;20.78;90.29;94719.63;5064461;28;20213;-77
2022/08/29 02:34:30;;;;;;;22.83;12.48;;;;;;;20.75;90.63;94715.69;5064379;28;20660;-77
2022/08/29 02:36:59;;;;;;;19.25;13.25;;;;;;;20.74;91.08;94715.97;5062486;28;21069;-77
2022/08/29 02:39:26;;;;;;;26.38;12.73;;;;;;;20.66;91.48;94714.75;5061956;28;20338;-78
2022/08/29 02:41:53;;;;;;;21.65;12.63;;;;;;;20.68;91.30;94733.72;5061463;28;20292;-77
2022/08/29 02:44:20;;;;;;;18.75;13.18;;;;;;;20.63;90.52;94733.78;5063773;28;20209;-77
2022/08/29 02:46:47;;;;;;;20.40;12.57;;;;;;;20.48;91.23;94715.44;5062034;28;20233;-77
2022/08/29 02:49:14;;;;;;;24.67;12.68;;;;;;;20.57;90.89;94732.25;5061815;28;20197;-78
2022/08/29 02:51:42;;;;;;;20.02;12.90;;;;;;;20.48;90.97;94727.84;5062548;28;20205;-76
2022/08/29 02:54:10;;;;;;;20.65;13.20;;;;;;;20.55;90.79;94734.38;5061145;28;20206;-77
2022/08/29 02:56:38;;;;;;;31.63;13.55;;;;;;;20.56;90.66;94737.78;5061182;28;20205;-77
2022/08/29 02:59:07;;;;;;;23.35;14.25;;;;;;;20.57;90.89;94734.09;5062013;28;20224;-77
2022/08/29 03:01:37;;;;;;;28.05;14.13;;;;;;;20.50;91.43;94737.06;5062226;28;20233;-78
2022/08/29 03:04:04;;;;;;;21.58;13.00;;;;;;;20.47;92.08;94744.72;5063205;28;20213;-77
2022/08/29 03:06:31;;;;;;;26.15;13.55;;;;;;;20.48;92.68;94741.84;5064179;28;20224;-77
2022/08/29 03:08:59;;;;;;;24.85;13.20;;;;;;;20.47;93.06;94750.81;5063297;28;20216;-77
2022/08/29 03:11:27;;;;;;;21.38;13.20;;;;;;;20.44;93.58;94750.56;5062551;28;20209;-78
2022/08/29 03:13:54;;;;;;;24.83;13.40;;;;;;;20.58;92.08;94754.94;5062893;28;20209;-78
2022/08/29 03:16:21;;;;;;;25.27;14.13;;;;;;;20.56;92.25;94748.34;5061897;28;20246;-79
2022/08/29 03:18:47;;;;;;;34.35;13.48;;;;;;;20.53;93.07;94757.63;5062148;28;20742;-79
2022/08/29 03:21:16;;;;;;;24.13;13.75;;;;;;;20.41;93.47;94754.56;5063149;28;20206;-79
2022/08/29 03:23:43;;;;;;;31.42;14.15;;;;;;;20.32;93.79;94757.00;5062765;28;20306;-80
2022/08/29 03:26:11;;;;;;;26.40;14.07;;;;;;;20.32;94.25;94758.84;5059603;28;20212;-78
2022/08/29 03:28:38;;;;;;;30.38;14.18;;;;;;;20.18;94.79;94745.47;5062832;28;20208;-79
2022/08/29 03:31:05;;;;;;;24.08;14.30;;;;;;;20.25;95.14;94755.75;5061031;28;20580;-79
2022/08/29 03:33:32;;;;;;;26.88;14.38;;;;;;;20.21;95.07;94752.03;5061081;28;20986;-78
2022/08/29 03:35:59;;;;;;;23.67;14.93;;;;;;;20.07;95.25;94756.34;5061956;28;20213;-77
2022/08/29 03:38:25;;;;;;;31.25;15.88;;;;;;;19.99;95.67;94765.66;5062581;28;20225;-78
2022/08/29 03:40:52;;;;;;;30.13;14.48;;;;;;;20.00;96.65;94759.28;5062304;28;20213;-77
2022/08/29 03:43:20;;;;;;;28.27;14.20;;;;;;;20.06;96.56;94762.69;5061059;28;20201;-77
2022/08/29 03:45:48;;;;;;;30.15;15.13;;;;;;;20.03;96.42;94764.03;5061476;28;20676;-78
2022/08/29 03:48:15;;;;;;;24.10;14.43;;;;;;;20.00;96.15;94756.66;5063011;28;20275;-77
2022/08/29 03:50:42;;;;;;;24.60;14.30;;;;;;;19.95;97.17;94761.97;5061266;28;20201;-76
2022/08/29 03:53:09;;;;;;;31.48;14.90;;;;;;;20.02;95.70;94759.03;5061763;28;20208;-76
2022/08/29 03:55:36;;;;;;;32.33;14.13;;;;;;;20.08;95.14;94766.66;5063256;28;20221;-79
2022/08/29 03:58:03;;;;;;;24.25;14.88;;;;;;;20.09;94.30;94773.50;5062469;28;20801;-77
2022/08/29 04:00:31;;;;;;;24.08;14.35;;;;;;;20.07;93.89;94764.28;5063251;28;20216;-77
2022/08/29 04:02:58;;;;;;;28.60;14.40;;;;;;;20.15;95.14;94763.69;5062629;28;20213;-77
2022/08/29 04:05:25;;;;;;;34.72;15.57;;;;;;;20.18;95.08;94769.22;5062753;28;20209;-77
2022/08/29 04:07:56;;;;;;;28.92;14.85;;;;;;;20.14;95.84;94759.50;5062424;28;20201;-77
2022/08/29 04:10:25;;;;;;;29.67;14.43;;;;;;;20.18;95.93;94761.28;5062746;28;20224;-77
2022/08/29 04:12:53;;;;;;;29.48;15.43;;;;;;;20.19;95.49;94770.81;5061852;28;20197;-76
2022/08/29 04:15:20;;;;;;;27.83;16.23;;;;;;;20.20;96.03;94775.00;5061178;28;20236;-77
2022/08/29 04:17:50;;;;;;;31.13;15.95;;;;;;;20.18;95.10;94771.84;5060282;28;20217;-76
2022/08/29 04:20:17;;;;;;;36.78;16.10;;;;;;;20.30;94.10;94782.09;5061432;28;20197;-80
2022/08/29 04:22:44;;;;;;;31.63;16.25;;;;;;;20.26;93.99;94781.84;5061338;28;20201;-78
2022/08/29 04:25:14;;;;;;;34.05;15.30;;;;;;;20.27;94.03;94783.44;5060003;28;20567;-77
2022/08/29 04:27:42;;;;;;;35.28;15.45;;;;;;;20.30;94.12;94779.47;5061279;28;20209;-78
2022/08/29 04:30:13;;;;;;;27.10;15.35;;;;;;;20.30;93.48;94782.09;5058617;28;20212;-77
2022/08/29 04:32:41;;;;;;;27.10;15.18;;;;;;;20.30;92.75;94788.19;4991378;28;20284;-74
2022/08/29 04:35:12;;;;;;;28.17;16.52;;;;;;;20.29;92.64;94789.22;5018838;28;20212;-74
2022/08/29 04:37:39;;;;;;;26.88;16.92;;;;;;;20.26;92.83;94787.13;5057105;28;20213;-74
2022/08/29 04:40:07;;;;;;;28.08;15.55;;;;;;;20.19;93.01;94775.28;5056954;28;20225;-74
2022/08/29 04:42:36;;;;;;;33.95;16.42;;;;;;;20.29;93.13;94788.44;5057664;28;20292;-73
2022/08/29 04:45:03;;;;;;;32.70;16.42;;;;;;;20.34;93.21;94797.13;5057308;28;20263;-73
2022/08/29 04:47:30;;;;;;;29.58;15.32;;;;;;;20.38;93.54;94800.00;5056401;28;20254;-73
2022/08/29 04:49:57;;;;;;;30.90;15.82;;;;;;;20.40;93.69;94800.53;5059267;28;20282;-72
2022/08/29 04:52:26;;;;;;;37.13;15.32;;;;;;;20.46;93.71;94803.91;5058296;28;20205;-72
2022/08/29 04:54:54;;;;;;;29.60;15.23;;;;;;;20.50;92.66;94804.91;5060674;28;20258;-73
2022/08/29 04:57:21;;;;;;;30.70;16.00;;;;;;;20.50;93.57;94810.19;5059557;28;20252;-73
2022/08/29 04:59:54;;;;;;;36.70;15.43;;;;;;;20.59;92.03;94804.06;5061047;28;20225;-73
2022/08/29 05:02:21;;;;;;;28.92;15.07;;;;;;;20.63;92.00;94807.75;5058450;28;20216;-73
2022/08/29 05:04:51;;;;;;;33.78;15.15;;;;;;;20.66;91.99;94820.41;5060211;28;20241;-73
2022/08/29 05:07:20;;;;;;;33.25;17.77;;;;;;;20.77;92.47;94826.38;5061293;28;20212;-73
2022/08/29 05:09:49;;;;;;;29.80;16.00;;;;;;;20.88;89.90;94820.75;5058712;28;20270;-73
2022/08/29 05:12:17;;;;;;;26.90;14.40;;;;;;;20.98;89.06;94824.34;5060265;28;20914;-73
2022/08/29 05:14:43;;;;;;;25.95;13.93;;;;;;;20.96;88.67;94829.91;5060989;28;20351;-74
2022/08/29 05:17:10;;;;;;;31.10;12.80;;;;;;;21.01;87.93;94827.22;5061471;28;20258;-74
2022/08/29 05:19:37;;;;;;;22.35;12.50;;;;;;;20.98;88.22;94830.41;5060948;28;20256;-74
2022/08/29 05:22:05;;;;;;;24.95;11.95;;;;;;;20.98;87.78;94833.06;5059626;28;20209;-73
2022/08/29 05:24:36;;;;;;;21.88;12.13;;;;;;;21.07;87.55;94839.31;5059840;28;20209;-74
2022/08/29 05:27:08;;;;;;;26.17;12.70;;;;;;;21.13;87.12;94829.50;5060817;28;20196;-74
2022/08/29 05:29:37;;;;;;;20.02;12.02;;;;;;;21.20;87.00;94822.06;5060575;28;20197;-73
2022/08/29 05:32:05;;;;;;;20.63;12.60;;;;;;;21.27;86.47;94836.50;5059969;28;20211;-74
2022/08/29 05:34:33;;;;;;;22.67;12.38;;;;;;;21.26;86.71;94837.59;5059540;28;20227;-74
2022/08/29 05:37:00;;;;;;;21.15;12.80;;;;;;;21.27;86.75;94831.22;5058311;28;20755;-74
2022/08/29 05:39:27;;;;;;;22.13;11.93;;;;;;;21.43;85.98;94831.88;5059684;28;20225;-73
2022/08/29 05:41:55;;;;;;;20.98;12.23;;;;;;;21.44;85.26;94831.56;5058519;28;20884;-74
2022/08/29 05:44:23;;;;;;;19.65;12.75;;;;;;;21.50;85.74;94840.25;5060745;28;20209;-73
2022/08/29 05:46:50;;;;;;;27.42;12.48;;;;;;;21.53;84.74;94831.75;5058076;28;20209;-74
2022/08/29 05:49:17;;;;;;;19.15;12.50;;;;;;;21.66;84.52;94840.88;5060024;28;20209;-73
2022/08/29 05:51:44;;;;;;;24.83;12.50;;;;;;;21.70;84.03;94833.97;5059645;28;20213;-72
2022/08/29 05:54:11;;;;;;;22.58;12.60;;;;;;;21.78;84.07;94841.25;5058430;28;20212;-73
2022/08/29 05:56:38;;;;;;;27.52;13.05;;;;;;;21.63;84.73;94852.00;5058801;28;20972;-73
2022/08/29 05:59:04;;;;;;;22.55;12.48;;;;;;;21.63;84.66;94844.88;5058489;28;20237;-74
2022/08/29 06:01:33;;;;;;;28.35;12.73;;;;;;;21.68;84.51;94844.00;5059220;28;20206;-74
2022/08/29 06:04:08;;;;;;;22.35;11.82;;;;;;;21.74;83.84;94858.75;5055656;28;20209;-72
2022/08/29 06:06:35;;;;;;;29.42;11.73;;;;;;;21.80;82.63;94855.78;5057161;28;20236;-78
2022/08/29 06:09:02;;;;;;;23.40;11.77;;;;;;;21.86;82.73;94848.56;5056852;28;20197;-79
2022/08/29 06:11:31;;;;;;;26.88;11.80;;;;;;;21.67;83.53;94853.03;5058203;28;20271;-78
2022/08/29 06:13:59;;;;;;;25.77;11.60;;;;;;;21.67;83.08;94848.53;5055944;28;20212;-79
2022/08/29 06:16:27;;;;;;;24.88;11.32;;;;;;;21.68;83.20;94850.09;5058178;28;20741;-79
2022/08/29 06:18:56;;;;;;;24.38;13.00;;;;;;;21.65;83.50;94855.94;5058151;28;20244;-78
2022/08/29 06:21:23;;;;;;;28.27;12.73;;;;;;;21.42;85.20;94852.22;5058738;28;20274;-77
2022/08/29 06:23:50;;;;;;;22.88;13.13;;;;;;;21.43;85.39;94851.19;5058493;28;20209;-78
2022/08/29 06:26:18;;;;;;;28.85;15.10;;;;;;;21.45;85.62;94856.16;5060956;28;20204;-78
2022/08/29 06:28:46;;;;;;;29.38;15.15;;;;;;;21.47;85.75;94852.19;5055639;28;20201;-78
2022/08/29 06:31:15;;;;;;;31.15;14.68;;;;;;;21.60;84.91;94852.56;5055679;28;20213;-77
2022/08/29 06:33:42;;;;;;;30.67;14.05;;;;;;;21.68;85.16;94851.94;5021860;28;20520;-79
2022/08/29 06:36:11;;;;;;;34.28;14.20;;;;;;;21.80;84.66;94847.06;5057291;28;20204;-79
2022/08/29 06:38:38;;;;;;;37.88;15.90;;;;;;;21.97;83.77;94852.69;5058394;28;20208;-78
2022/08/29 06:41:07;;;;;;;35.22;15.25;;;;;;;22.04;83.68;94850.50;5060171;28;20208;-79
2022/08/29 06:43:34;;;;;;;23.40;13.73;;;;;;;22.37;82.49;94852.16;5060851;28;20216;-78
2022/08/29 06:46:00;;;;;;;28.77;13.32;;;;;;;22.62;81.18;94843.06;5061229;28;20740;-78
2022/08/29 06:48:27;;;;;;;20.63;13.18;;;;;;;22.77;78.68;94848.16;5063560;28;20235;-82
2022/08/29 06:50:54;;;;;;;25.48;13.80;;;;;;;22.77;77.79;94848.16;5064458;28;20212;-81
2022/08/29 06:53:23;;;;;;;27.10;12.85;;;;;;;22.81;77.63;94854.47;5064818;28;20602;-83
2022/08/29 06:55:50;;;;;;;29.55;14.38;;;;;;;22.75;77.70;94852.97;5064459;28;20618;-83
2022/08/29 06:58:16;;;;;;;28.48;15.10;;;;;;;22.81;77.71;94858.97;5064838;28;20292;-81
2022/08/29 07:00:44;;;;;;;41.05;15.32;;;;;;;22.88;77.16;94857.53;5062041;28;20758;-81
2022/08/29 07:03:15;;;;;;;26.35;14.23;;;;;;;22.75;76.89;94839.72;5062095;28;20711;-81
2022/08/29 07:05:42;;;;;;;25.63;12.85;;;;;;;23.08;77.16;94862.53;5062681;28;20297;-83
2022/08/29 07:08:09;;;;;;;29.00;12.00;;;;;;;23.25;77.04;94869.13;5063126;28;20205;-74
2022/08/29 07:10:37;;;;;;;23.65;12.73;;;;;;;23.30;76.44;94864.53;5061645;28;20194;-82
2022/08/29 07:13:04;;;;;;;25.13;12.50;;;;;;;23.45;75.77;94863.50;5063559;28;20212;-81
2022/08/29 07:15:31;;;;;;;30.35;12.05;;;;;;;23.55;74.82;94858.78;5061661;28;20700;-81
2022/08/29 07:17:57;;;;;;;31.40;11.35;;;;;;;23.67;74.78;94864.41;5060425;28;20216;-80
2022/08/29 07:20:24;;;;;;;21.00;10.52;;;;;;;23.70;74.89;94861.16;5061602;28;20240;-81
2022/08/29 07:22:51;;;;;;;23.13;10.10;;;;;;;23.68;74.26;94867.84;5061781;28;20213;-80
2022/08/29 07:25:19;;;;;;;17.08;10.20;;;;;;;23.60;75.02;94863.22;5061544;28;20638;-80
2022/08/29 07:27:48;;;;;;;18.52;10.15;;;;;;;23.61;75.10;94860.25;5062010;28;20672;-82
2022/08/29 07:30:16;;;;;;;19.20;9.52;;;;;;;23.73;75.20;94870.41;5063211;28;20663;-84
2022/08/29 07:32:44;;;;;;;21.83;10.60;;;;;;;23.87;74.78;94875.69;5062060;28;20300;-81
2022/08/29 07:35:12;;;;;;;18.40;9.10;;;;;;;24.06;74.50;94879.84;5059564;28;20267;-81
2022/08/29 07:37:39;;;;;;;24.05;10.45;;;;;;;24.15;72.54;94880.75;5058515;28;20612;-81
2022/08/29 07:40:07;;;;;;;22.63;9.45;;;;;;;24.16;73.59;94884.97;5061437;28;20727;-80
2022/08/29 07:42:34;;;;;;;16.23;10.15;;;;;;;24.23;73.19;94873.94;5060912;28;20201;-81
2022/08/29 07:45:03;;;;;;;22.90;9.90;;;;;;;24.44;72.96;94880.41;5060456;28;20205;-84
2022/08/29 07:47:30;;;;;;;18.20;10.30;;;;;;;24.54;72.32;94879.38;5061883;28;20239;-82
2022/08/29 07:49:58;;;;;;;21.17;9.80;;;;;;;24.62;72.55;94881.34;5060597;28;20198;-79
2022/08/29 07:52:25;;;;;;;24.98;12.68;;;;;;;24.74;71.59;94878.94;5060102;28;20205;-77
2022/08/29 07:54:52;;;;;;;14.82;10.20;;;;;;;24.87;72.06;94880.00;5060624;28;20679;-82
2022/08/29 07:57:19;;;;;;;26.15;10.48;;;;;;;25.00;71.09;94881.81;5061952;28;20201;-76
2022/08/29 07:59:46;;;;;;;19.23;10.88;;;;;;;25.22;69.52;94869.28;5059856;28;20225;-76
2022/08/29 08:02:14;;;;;;;21.02;10.68;;;;;;;25.21;67.41;94866.94;5059828;28;20209;-76
2022/08/29 08:04:41;;;;;;;21.20;9.75;;;;;;;25.10;68.32;94865.63;5060781;28;20300;-77
2022/08/29 08:07:09;;;;;;;21.77;10.20;;;;;;;25.16;69.23;94867.88;5059736;28;20714;-76
2022/08/29 08:09:36;;;;;;;19.48;10.05;;;;;;;25.25;67.77;94875.91;5060538;28;20292;-77
2022/08/29 08:12:04;;;;;;;17.05;9.43;;;;;;;25.26;67.75;94872.91;5059629;28;20216;-77
2022/08/29 08:14:31;;;;;;;15.13;9.73;;;;;;;25.34;67.22;94869.53;5059871;28;20707;-76
2022/08/29 08:16:58;;;;;;;28.58;10.40;;;;;;;25.40;67.53;94865.63;5058119;28;20687;-76
2022/08/29 08:19:28;;;;;;;15.75;9.40;;;;;;;25.56;67.78;94870.59;5058648;28;20232;-77
2022/08/29 08:21:55;;;;;;;15.90;8.65;;;;;;;25.69;66.72;94872.38;5059848;28;20266;-77
2022/08/29 08:24:22;;;;;;;14.43;9.70;;;;;;;25.79;65.25;94864.13;5064151;28;20216;-77
2022/08/29 08:26:49;;;;;;;15.35;9.48;;;;;;;25.67;63.80;94856.72;5063887;28;20322;-76
2022/08/29 08:29:16;;;;;;;22.63;9.30;;;;;;;25.54;63.92;94870.13;5064719;28;20205;-76
2022/08/29 08:31:44;;;;;;;14.25;9.90;;;;;;;25.29;64.76;94861.66;5064462;28;20228;-76
2022/08/29 08:34:37;;;;;;;15.88;10.00;;;;;;;25.42;65.72;94865.34;5068001;28;20240;-76
2022/08/29 08:37:07;;;;;;;17.40;9.73;;;;;;;25.51;65.53;94855.56;5064195;28;20212;-77
2022/08/29 08:39:35;;;;;;;13.98;8.88;;;;;;;25.70;65.32;94858.78;5064946;28;20615;-76
2022/08/29 08:42:12;;;;;;;18.33;9.43;;;;;;;25.67;63.82;94870.03;5063199;28;20841;-77
2022/08/29 08:44:59;;;;;;;15.68;9.57;;;;;;;25.60;63.15;94876.91;5064233;28;20205;-79
2022/08/29 08:47:30;;;;;;;16.73;9.40;;;;;;;25.38;64.68;94867.03;5063022;28;20197;-79
2022/08/29 08:50:01;;;;;;;19.60;9.93;;;;;;;25.39;66.08;94868.63;5062523;28;20201;-80
2022/08/29 08:52:37;;;;;;;17.70;9.52;;;;;;;25.40;66.46;94868.31;5063871;28;20205;-80
2022/08/29 08:55:11;;;;;;;22.77;10.30;;;;;;;25.21;66.95;94862.41;5063828;28;20213;-79
2022/08/29 08:57:41;;;;;;;16.42;10.75;;;;;;;25.12;68.17;94858.13;5064315;28;20746;-80
2022/08/29 09:00:11;;;;;;;21.15;11.65;;;;;;;25.13;68.95;94857.03;5064164;28;20303;-79
2022/08/29 09:02:56;;;;;;;14.65;9.95;;;;;;;25.12;67.72;94856.25;5061846;28;20660;-79
2022/08/29 09:05:41;;;;;;;23.42;9.80;;;;;;;25.04;67.55;94858.84;5063805;28;20197;-78
2022/08/29 09:08:22;;;;;;;14.52;9.82;;;;;;;25.15;66.69;94854.84;5063412;28;20204;-79
2022/08/29 09:10:58;;;;;;;19.60;10.10;;;;;;;24.85;67.27;94832.44;5061817;28;20205;-80
2022/08/29 09:13:46;;;;;;;19.80;10.60;;;;;;;25.10;67.20;94855.78;5063142;28;20220;-79
2022/08/29 09:16:22;;;;;;;23.10;10.45;;;;;;;25.10;67.20;94852.31;5061141;28;20193;-79
2022/08/29 09:18:49;;;;;;;19.38;11.32;;;;;;;25.28;66.83;94846.78;5063638;28;20201;-80
2022/08/29 09:21:18;;;;;;;18.20;10.10;;;;;;;25.44;66.28;94855.19;5063542;28;20224;-78
2022/08/29 09:23:48;;;;;;;20.73;10.40;;;;;;;25.51;65.65;94857.44;5061281;28;20593;-78
2022/08/29 09:26:17;;;;;;;19.98;11.00;;;;;;;25.50;65.25;94847.88;5062082;28;20658;-79
2022/08/29 09:28:44;;;;;;;23.20;10.98;;;;;;;25.45;66.51;94845.31;5060371;28;20209;-80
2022/08/29 09:31:18;;;;;;;23.52;13.40;;;;;;;25.42;66.39;94841.41;5062370;28;20205;-78
2022/08/29 09:33:48;;;;;;;24.30;13.07;;;;;;;25.27;68.42;94839.91;5060058;28;20816;-76
2022/08/29 09:36:32;;;;;;;23.75;15.35;;;;;;;25.21;69.45;94835.81;5063472;28;20205;-79
2022/08/29 09:39:11;;;;;;;14.07;11.48;;;;;;;25.23;69.76;94838.94;5062681;28;20220;-80
2022/08/29 09:41:38;;;;;;;17.08;11.70;;;;;;;25.18;69.74;94835.63;5062517;28;20291;-78
2022/08/29 09:44:05;;;;;;;24.17;11.63;;;;;;;25.07;70.53;94808.50;5061036;28;20694;-78
2022/08/29 09:46:32;;;;;;;22.23;11.43;;;;;;;25.10;71.25;94823.06;5063983;28;20212;-77
2022/08/29 09:49:13;;;;;;;21.10;11.50;;;;;;;25.13;71.67;94822.44;5063440;28;21078;-78
2022/08/29 09:51:50;;;;;;;23.15;11.65;;;;;;;25.12;71.93;94820.88;5064625;28;20197;-78
2022/08/29 09:54:30;;;;;;;22.00;11.30;;;;;;;25.15;72.11;94815.72;5063241;28;20216;-79
2022/08/29 09:57:03;;;;;;;21.02;11.10;;;;;;;25.18;71.99;94830.28;5061898;28;20201;-78
2022/08/29 09:59:35;;;;;;;18.30;11.05;;;;;;;25.19;72.53;94815.91;5061675;28;20205;-79
2022/08/29 10:02:22;;;;;;;23.60;12.18;;;;;;;25.22;71.78;94808.09;5061946;28;20213;-79
2022/08/29 10:04:51;;;;;;;23.83;12.40;;;;;;;25.32;70.61;94815.81;5063437;28;20200;-78
2022/08/29 10:07:21;;;;;;;15.35;11.00;;;;;;;25.34;70.66;94816.28;5063314;28;20209;-77
2022/08/29 10:10:06;;;;;;;26.60;10.93;;;;;;;25.36;70.63;94806.13;5060707;28;20232;-77
2022/08/29 10:12:49;;;;;;;18.50;11.20;;;;;;;25.33;71.36;94800.63;5062828;28;20228;-78
2022/08/29 10:15:26;;;;;;;20.70;11.30;;;;;;;25.36;70.83;94810.66;5062583;28;20225;-78
2022/08/29 10:20:51;;;;;;;19.23;11.27;;;;;;;25.42;72.36;94796.91;5061211;28;20310;-76
2022/08/29 10:23:36;;;;;;;19.98;10.95;;;;;;;25.46;73.22;94793.63;5061781;28;20215;-77
2022/08/29 10:26:16;;;;;;;13.73;10.52;;;;;;;25.70;71.50;94786.88;5062343;28;20213;-77
2022/08/29 10:28:49;;;;;;;18.75;11.50;;;;;;;25.94;70.82;94776.56;5061955;28;20205;-78
2022/08/29 10:31:26;;;;;;;23.58;11.00;;;;;;;25.97;69.73;94755.75;5058110;28;20193;-77
2022/08/29 10:34:10;;;;;;;18.98;10.43;;;;;;;26.23;68.29;94780.56;5061575;28;20263;-77
2022/08/29 10:36:39;;;;;;;21.52;12.05;;;;;;;26.37;68.74;94768.66;5062720;28;20284;-78
2022/08/29 10:39:13;;;;;;;18.10;10.73;;;;;;;26.63;65.27;94776.63;5061256;28;20315;-77
2022/08/29 10:41:52;;;;;;;17.30;9.73;;;;;;;26.69;64.68;94770.03;5062573;28;20227;-78
2022/08/29 10:44:28;;;;;;;17.42;11.00;;;;;;;26.66;64.79;94768.00;5061103;28;20695;-78
2022/08/29 10:47:12;;;;;;;19.55;11.10;;;;;;;26.40;65.23;94760.03;5060802;28;20209;-79
2022/08/29 10:49:58;;;;;;;21.40;11.02;;;;;;;26.32;65.75;94763.47;5063245;28;20204;-78
2022/08/29 10:52:31;;;;;;;20.88;11.70;;;;;;;26.23;65.23;94757.38;5061006;28;20672;-78
2022/08/29 10:55:07;;;;;;;17.63;10.43;;;;;;;26.18;65.72;94760.16;5062483;28;20197;-79
2022/08/29 10:57:45;;;;;;;31.27;11.10;;;;;;;26.13;65.91;94756.84;5061691;28;20197;-78
2022/08/29 11:00:16;;;;;;;23.60;10.68;;;;;;;26.09;66.23;94755.91;5062458;28;20224;-80
2022/08/29 11:02:48;;;;;;;21.73;11.00;;;;;;;26.01;65.67;94762.78;5059294;28;20208;-79
2022/08/29 11:05:23;;;;;;;17.42;10.65;;;;;;;26.06;65.67;94764.53;5062534;28;20595;-80
2022/08/29 11:07:54;;;;;;;27.95;11.02;;;;;;;25.99;65.70;94767.66;5060532;28;20208;-81
2022/08/29 11:10:26;;;;;;;18.90;11.13;;;;;;;25.88;65.59;94763.72;5058080;28;20276;-81
2022/08/29 11:13:00;;;;;;;23.15;10.30;;;;;;;25.81;65.93;94753.50;5046067;28;20296;-80
2022/08/29 11:15:35;;;;;;;25.08;11.02;;;;;;;25.73;65.96;94740.97;5062734;28;20229;-79
2022/08/29 11:18:09;;;;;;;17.80;9.73;;;;;;;25.77;64.74;94730.50;5062525;28;20205;-80
2022/08/29 11:20:42;;;;;;;19.83;10.15;;;;;;;25.76;64.73;94726.25;5061792;28;20229;-80
2022/08/29 11:23:17;;;;;;;23.13;10.40;;;;;;;25.85;64.69;94724.38;5061408;28;20213;-79
2022/08/29 11:25:45;;;;;;;17.92;9.88;;;;;;;25.91;64.33;94723.94;5061378;28;20208;-80
2022/08/29 11:28:24;;;;;;;18.40;9.60;;;;;;;25.98;64.74;94712.00;5062773;28;20221;-79
2022/08/29 11:30:59;;;;;;;21.35;10.20;;;;;;;26.17;63.34;94709.84;5062577;28;20882;-79
2022/08/29 11:33:36;;;;;;;14.55;9.45;;;;;;;26.21;64.09;94714.22;5061969;28;20209;-77
2022/08/29 11:36:29;;;;;;;17.30;9.65;;;;;;;26.37;64.19;94707.34;5062809;28;20208;-78